Aeroporto :
LOGIN :

Iscrizione | Disclaimer

   EN    FR    IT 

 










Sommario :    VFR   VFR Marginale   IFR   IFR Intensivo   IFR Molto Intensivo
Visibilità : 
Base nubi : 
>= 8 km
>= 3000ft
5 / 8 km
1000 / 3000 ft
1500m / 5 km
500 / 1000 ft
800 / 1500m
200 / 500 ft
< 800m
< 200 ft
Simboli :   Temporali  Nebbia  Neve Forte  Precipitazioni Forti  Vento > 20 kt
SIGMETs :   Varie  Temporali  Ghiacco  Turbolenza  Onda orograficha  Ceneri Vulcaniche






- Altitudine del aeroporto : 286 ft
- Codice IATA : FFD


EGVA - RAF Fairford

ULTIMO METAR :
  • 201556Z AUTO 11008KT 9999 CLR 05/01 A2976 RMK AO2 SLP084 T00490010 $

METARs OBSOLETI :
  • 201501Z AUTO 12009KT 9999 SCT029 06/01 A2977 RMK AO2 SLP087 $
  • 201446Z AUTO 13009KT 9999 OVC029 07/01 A2978 RMK AO2 OVC V BKN SLP090 $
  • 201356Z AUTO 12014KT 9999 BKN031 07/01 A2979 RMK AO2 SLP093 T00680011 $
  • 201351Z AUTO 12013G18KT 9999 BKN029 07/01 A2979 RMK AO2 BKN V SCT SLP093 $

Previsioni scadute.



MetMap, La meteo Aeronautica in un colpo d'occhio ! - Copyright ORBIFLY Dicembre 2007 - Disclaimer

ORBIFLY MET'MAP TEAM :

Programmazione e sviluppo : Alexandra Zaïnal
Concezione e sviluppo : Baudouin d'Aumeries
Co-Programmazione e sviluppo : Marc-Olivier Méhu
Supporto tecnico e logistico : Manuel Goepfert
Aiuto per la traduzione : Arnaldo La Scala

Contatto : metmap@orbifly.com




FONTI E CREDITI :

   NOAA